sensor_id;sensor_type;location;lat;lon;timestamp;temperature;humidity
68385;DHT22;55336;43.062;25.626;2023-06-14T00:01:38;18.20;99.90
68385;DHT22;55336;43.062;25.626;2023-06-14T00:04:04;18.20;99.90
68385;DHT22;55336;43.062;25.626;2023-06-14T00:06:34;18.10;99.90
68385;DHT22;55336;43.062;25.626;2023-06-14T00:08:59;18.10;99.90
68385;DHT22;55336;43.062;25.626;2023-06-14T00:11:25;18.10;99.90
68385;DHT22;55336;43.062;25.626;2023-06-14T00:13:52;18.00;99.90
68385;DHT22;55336;43.062;25.626;2023-06-14T00:16:17;18.00;99.90
68385;DHT22;55336;43.062;25.626;2023-06-14T00:18:45;17.90;99.90
68385;DHT22;55336;43.062;25.626;2023-06-14T00:21:11;17.90;99.90
68385;DHT22;55336;43.062;25.626;2023-06-14T00:23:37;17.80;99.90
68385;DHT22;55336;43.062;25.626;2023-06-14T00:26:03;17.70;99.90
68385;DHT22;55336;43.062;25.626;2023-06-14T00:28:29;17.70;99.90
68385;DHT22;55336;43.062;25.626;2023-06-14T00:30:54;17.60;99.90
68385;DHT22;55336;43.062;25.626;2023-06-14T00:33:20;17.50;99.90
68385;DHT22;55336;43.062;25.626;2023-06-14T00:35:46;17.50;99.90
68385;DHT22;55336;43.062;25.626;2023-06-14T00:38:14;17.40;99.90
68385;DHT22;55336;43.062;25.626;2023-06-14T00:40:40;17.40;99.90
68385;DHT22;55336;43.062;25.626;2023-06-14T00:43:05;16.90;99.90
68385;DHT22;55336;43.062;25.626;2023-06-14T00:45:31;17.20;99.90
68385;DHT22;55336;43.062;25.626;2023-06-14T00:48:01;17.20;99.90
68385;DHT22;55336;43.062;25.626;2023-06-14T00:50:28;17.10;99.90
68385;DHT22;55336;43.062;25.626;2023-06-14T00:52:55;17.10;99.90
68385;DHT22;55336;43.062;25.626;2023-06-14T00:55:21;17.00;99.90
68385;DHT22;55336;43.062;25.626;2023-06-14T00:57:47;17.00;99.90
68385;DHT22;55336;43.062;25.626;2023-06-14T01:00:13;17.00;99.90
68385;DHT22;55336;43.062;25.626;2023-06-14T01:02:39;17.00;99.90
68385;DHT22;55336;43.062;25.626;2023-06-14T01:05:06;16.90;99.90
68385;DHT22;55336;43.062;25.626;2023-06-14T01:07:43;16.90;99.90
68385;DHT22;55336;43.062;25.626;2023-06-14T01:12:43;16.80;99.90
68385;DHT22;55336;43.062;25.626;2023-06-14T01:15:10;16.70;99.90
68385;DHT22;55336;43.062;25.626;2023-06-14T01:17:38;16.70;99.90
68385;DHT22;55336;43.062;25.626;2023-06-14T01:20:07;16.50;99.90
68385;DHT22;55336;43.062;25.626;2023-06-14T01:22:35;16.40;99.90
68385;DHT22;55336;43.062;25.626;2023-06-14T01:25:01;16.40;99.90
68385;DHT22;55336;43.062;25.626;2023-06-14T01:27:27;16.40;99.90
68385;DHT22;55336;43.062;25.626;2023-06-14T01:29:58;16.30;99.90
68385;DHT22;55336;43.062;25.626;2023-06-14T01:32:25;16.30;99.90
68385;DHT22;55336;43.062;25.626;2023-06-14T01:34:51;16.30;99.90
68385;DHT22;55336;43.062;25.626;2023-06-14T01:37:17;16.20;99.90
68385;DHT22;55336;43.062;25.626;2023-06-14T01:39:44;16.20;99.90
68385;DHT22;55336;43.062;25.626;2023-06-14T01:42:10;16.10;99.90
68385;DHT22;55336;43.062;25.626;2023-06-14T01:44:36;16.60;99.90
68385;DHT22;55336;43.062;25.626;2023-06-14T01:47:03;16.10;99.90
68385;DHT22;55336;43.062;25.626;2023-06-14T01:49:28;16.10;99.90
68385;DHT22;55336;43.062;25.626;2023-06-14T01:51:54;16.10;99.90
68385;DHT22;55336;43.062;25.626;2023-06-14T01:54:20;16.00;99.90
68385;DHT22;55336;43.062;25.626;2023-06-14T01:56:47;16.00;99.90
68385;DHT22;55336;43.062;25.626;2023-06-14T01:59:12;15.90;99.90
68385;DHT22;55336;43.062;25.626;2023-06-14T02:01:38;15.90;99.90
68385;DHT22;55336;43.062;25.626;2023-06-14T02:04:04;15.80;99.90
68385;DHT22;55336;43.062;25.626;2023-06-14T02:06:30;15.80;99.90
68385;DHT22;55336;43.062;25.626;2023-06-14T02:08:55;15.80;99.90
68385;DHT22;55336;43.062;25.626;2023-06-14T02:11:21;15.80;99.90
68385;DHT22;55336;43.062;25.626;2023-06-14T02:13:47;15.80;99.90
68385;DHT22;55336;43.062;25.626;2023-06-14T02:16:12;15.70;99.90
68385;DHT22;55336;43.062;25.626;2023-06-14T02:18:39;15.70;99.90
68385;DHT22;55336;43.062;25.626;2023-06-14T02:21:05;15.70;99.90
68385;DHT22;55336;43.062;25.626;2023-06-14T02:23:31;15.60;99.90
68385;DHT22;55336;43.062;25.626;2023-06-14T02:25:57;15.60;99.90
68385;DHT22;55336;43.062;25.626;2023-06-14T02:28:23;15.50;99.90
68385;DHT22;55336;43.062;25.626;2023-06-14T02:30:49;15.50;99.90
68385;DHT22;55336;43.062;25.626;2023-06-14T02:33:15;15.50;99.90
68385;DHT22;55336;43.062;25.626;2023-06-14T02:35:41;15.50;99.90
68385;DHT22;55336;43.062;25.626;2023-06-14T02:38:07;15.40;99.90
68385;DHT22;55336;43.062;25.626;2023-06-14T02:40:32;15.40;99.90
68385;DHT22;55336;43.062;25.626;2023-06-14T02:42:58;15.40;99.90
68385;DHT22;55336;43.062;25.626;2023-06-14T02:45:24;15.40;99.90
68385;DHT22;55336;43.062;25.626;2023-06-14T02:47:50;15.40;99.90
68385;DHT22;55336;43.062;25.626;2023-06-14T02:50:16;15.40;99.90
68385;DHT22;55336;43.062;25.626;2023-06-14T02:52:43;15.40;99.90
68385;DHT22;55336;43.062;25.626;2023-06-14T02:55:10;15.40;99.90
68385;DHT22;55336;43.062;25.626;2023-06-14T02:57:35;15.40;99.90
68385;DHT22;55336;43.062;25.626;2023-06-14T03:00:01;15.40;99.90
68385;DHT22;55336;43.062;25.626;2023-06-14T03:02:27;15.40;99.90
68385;DHT22;55336;43.062;25.626;2023-06-14T03:04:52;15.40;99.90
68385;DHT22;55336;43.062;25.626;2023-06-14T03:07:18;15.30;99.90
68385;DHT22;55336;43.062;25.626;2023-06-14T03:09:45;15.40;99.90
68385;DHT22;55336;43.062;25.626;2023-06-14T03:12:10;15.40;99.90
68385;DHT22;55336;43.062;25.626;2023-06-14T03:14:36;15.50;99.90
68385;DHT22;55336;43.062;25.626;2023-06-14T03:17:03;15.50;99.90
68385;DHT22;55336;43.062;25.626;2023-06-14T03:19:30;15.70;99.90
68385;DHT22;55336;43.062;25.626;2023-06-14T03:21:55;15.80;99.90
68385;DHT22;55336;43.062;25.626;2023-06-14T03:24:24;15.80;99.90
68385;DHT22;55336;43.062;25.626;2023-06-14T03:26:52;15.90;99.90
68385;DHT22;55336;43.062;25.626;2023-06-14T03:29:18;16.00;99.90
68385;DHT22;55336;43.062;25.626;2023-06-14T03:32:00;16.00;99.90
68385;DHT22;55336;43.062;25.626;2023-06-14T03:34:26;16.10;99.90
68385;DHT22;55336;43.062;25.626;2023-06-14T03:36:51;16.30;99.90
68385;DHT22;55336;43.062;25.626;2023-06-14T03:39:17;16.40;99.90
68385;DHT22;55336;43.062;25.626;2023-06-14T03:41:43;16.60;99.90
68385;DHT22;55336;43.062;25.626;2023-06-14T03:44:09;16.70;99.90
68385;DHT22;55336;43.062;25.626;2023-06-14T03:46:35;16.80;99.90
68385;DHT22;55336;43.062;25.626;2023-06-14T03:49:00;17.00;99.90
68385;DHT22;55336;43.062;25.626;2023-06-14T03:51:27;17.10;99.90
68385;DHT22;55336;43.062;25.626;2023-06-14T03:53:53;17.20;99.90
68385;DHT22;55336;43.062;25.626;2023-06-14T03:56:21;17.30;99.90
68385;DHT22;55336;43.062;25.626;2023-06-14T03:58:46;17.40;99.90
68385;DHT22;55336;43.062;25.626;2023-06-14T04:01:12;17.50;99.90
68385;DHT22;55336;43.062;25.626;2023-06-14T04:03:38;17.60;99.90
68385;DHT22;55336;43.062;25.626;2023-06-14T04:06:05;17.70;99.90
68385;DHT22;55336;43.062;25.626;2023-06-14T04:08:31;18.00;99.90
68385;DHT22;55336;43.062;25.626;2023-06-14T04:10:57;18.10;99.90
68385;DHT22;55336;43.062;25.626;2023-06-14T04:13:23;18.40;99.90
68385;DHT22;55336;43.062;25.626;2023-06-14T04:15:49;18.60;99.90
68385;DHT22;55336;43.062;25.626;2023-06-14T04:18:14;18.80;99.90
68385;DHT22;55336;43.062;25.626;2023-06-14T04:20:40;18.90;99.90
68385;DHT22;55336;43.062;25.626;2023-06-14T04:23:12;18.90;99.90
68385;DHT22;55336;43.062;25.626;2023-06-14T04:25:38;18.60;99.90
68385;DHT22;55336;43.062;25.626;2023-06-14T04:28:04;18.70;99.90
68385;DHT22;55336;43.062;25.626;2023-06-14T04:30:30;18.40;99.90
68385;DHT22;55336;43.062;25.626;2023-06-14T04:32:57;18.30;99.90
68385;DHT22;55336;43.062;25.626;2023-06-14T04:35:22;18.30;99.90
68385;DHT22;55336;43.062;25.626;2023-06-14T04:37:52;18.40;99.90
68385;DHT22;55336;43.062;25.626;2023-06-14T04:40:18;18.40;99.90
68385;DHT22;55336;43.062;25.626;2023-06-14T04:42:44;18.50;99.90
68385;DHT22;55336;43.062;25.626;2023-06-14T04:45:11;18.40;99.90
68385;DHT22;55336;43.062;25.626;2023-06-14T04:47:38;18.30;99.90
68385;DHT22;55336;43.062;25.626;2023-06-14T04:50:04;18.40;99.90
68385;DHT22;55336;43.062;25.626;2023-06-14T04:52:30;18.40;99.90
68385;DHT22;55336;43.062;25.626;2023-06-14T04:54:57;18.40;99.90
68385;DHT22;55336;43.062;25.626;2023-06-14T04:57:23;18.50;99.90
68385;DHT22;55336;43.062;25.626;2023-06-14T04:59:50;18.40;99.90
68385;DHT22;55336;43.062;25.626;2023-06-14T05:02:23;18.40;99.90
68385;DHT22;55336;43.062;25.626;2023-06-14T05:04:49;18.60;99.90
68385;DHT22;55336;43.062;25.626;2023-06-14T05:07:15;18.70;99.90
68385;DHT22;55336;43.062;25.626;2023-06-14T05:09:41;18.80;99.90
68385;DHT22;55336;43.062;25.626;2023-06-14T05:12:07;18.90;99.90
68385;DHT22;55336;43.062;25.626;2023-06-14T05:14:33;18.90;99.90
68385;DHT22;55336;43.062;25.626;2023-06-14T05:16:59;19.00;99.90
68385;DHT22;55336;43.062;25.626;2023-06-14T05:19:25;19.00;99.90
68385;DHT22;55336;43.062;25.626;2023-06-14T05:21:50;19.10;99.90
68385;DHT22;55336;43.062;25.626;2023-06-14T05:24:16;19.20;99.90
68385;DHT22;55336;43.062;25.626;2023-06-14T05:26:45;19.30;99.90
68385;DHT22;55336;43.062;25.626;2023-06-14T05:29:11;19.20;99.90
68385;DHT22;55336;43.062;25.626;2023-06-14T05:31:37;19.20;99.90
68385;DHT22;55336;43.062;25.626;2023-06-14T05:34:03;19.30;99.90
68385;DHT22;55336;43.062;25.626;2023-06-14T05:36:29;19.40;99.90
68385;DHT22;55336;43.062;25.626;2023-06-14T05:38:55;19.30;99.90
68385;DHT22;55336;43.062;25.626;2023-06-14T05:41:25;19.30;99.90
68385;DHT22;55336;43.062;25.626;2023-06-14T05:43:51;19.40;99.90
68385;DHT22;55336;43.062;25.626;2023-06-14T05:46:17;19.50;99.90
68385;DHT22;55336;43.062;25.626;2023-06-14T05:48:47;19.60;99.90
68385;DHT22;55336;43.062;25.626;2023-06-14T05:51:13;19.60;99.90
68385;DHT22;55336;43.062;25.626;2023-06-14T05:53:40;19.60;99.90
68385;DHT22;55336;43.062;25.626;2023-06-14T05:56:07;19.50;99.90
68385;DHT22;55336;43.062;25.626;2023-06-14T05:58:33;19.50;99.90
68385;DHT22;55336;43.062;25.626;2023-06-14T06:00:58;19.60;99.90
68385;DHT22;55336;43.062;25.626;2023-06-14T06:03:24;19.70;99.90
68385;DHT22;55336;43.062;25.626;2023-06-14T06:05:50;19.90;99.90
68385;DHT22;55336;43.062;25.626;2023-06-14T06:08:15;20.20;99.90
68385;DHT22;55336;43.062;25.626;2023-06-14T06:10:42;20.50;99.90
68385;DHT22;55336;43.062;25.626;2023-06-14T06:13:07;20.70;99.90
68385;DHT22;55336;43.062;25.626;2023-06-14T06:15:33;20.90;99.90
68385;DHT22;55336;43.062;25.626;2023-06-14T06:17:59;21.20;99.90
68385;DHT22;55336;43.062;25.626;2023-06-14T06:20:25;21.40;99.90
68385;DHT22;55336;43.062;25.626;2023-06-14T06:22:53;21.60;99.90
68385;DHT22;55336;43.062;25.626;2023-06-14T06:25:19;21.80;99.90
68385;DHT22;55336;43.062;25.626;2023-06-14T06:27:44;22.00;99.90
68385;DHT22;55336;43.062;25.626;2023-06-14T06:30:10;22.40;99.90
68385;DHT22;55336;43.062;25.626;2023-06-14T06:32:36;22.70;99.90
68385;DHT22;55336;43.062;25.626;2023-06-14T06:35:02;23.00;99.90
68385;DHT22;55336;43.062;25.626;2023-06-14T06:37:28;23.00;99.90
68385;DHT22;55336;43.062;25.626;2023-06-14T06:39:54;23.10;99.90
68385;DHT22;55336;43.062;25.626;2023-06-14T06:42:20;23.00;99.90
68385;DHT22;55336;43.062;25.626;2023-06-14T06:44:46;23.10;99.90
68385;DHT22;55336;43.062;25.626;2023-06-14T06:47:12;23.10;99.90
68385;DHT22;55336;43.062;25.626;2023-06-14T06:49:37;23.30;99.90
68385;DHT22;55336;43.062;25.626;2023-06-14T06:52:04;23.60;99.90
68385;DHT22;55336;43.062;25.626;2023-06-14T06:54:30;23.90;99.90
68385;DHT22;55336;43.062;25.626;2023-06-14T06:56:56;24.00;99.90
68385;DHT22;55336;43.062;25.626;2023-06-14T06:59:22;24.10;99.90
68385;DHT22;55336;43.062;25.626;2023-06-14T07:01:47;24.20;99.90
68385;DHT22;55336;43.062;25.626;2023-06-14T07:04:13;24.60;99.90
68385;DHT22;55336;43.062;25.626;2023-06-14T07:06:39;25.00;99.90
68385;DHT22;55336;43.062;25.626;2023-06-14T07:09:04;25.20;99.90
68385;DHT22;55336;43.062;25.626;2023-06-14T07:11:33;25.30;99.90
68385;DHT22;55336;43.062;25.626;2023-06-14T07:13:59;24.70;98.40
68385;DHT22;55336;43.062;25.626;2023-06-14T07:16:25;24.50;99.90
68385;DHT22;55336;43.062;25.626;2023-06-14T07:18:51;25.20;99.90
68385;DHT22;55336;43.062;25.626;2023-06-14T07:21:17;25.50;95.20
68385;DHT22;55336;43.062;25.626;2023-06-14T07:23:43;25.70;92.90
68385;DHT22;55336;43.062;25.626;2023-06-14T07:26:09;25.70;92.50
68385;DHT22;55336;43.062;25.626;2023-06-14T07:28:34;25.80;93.30
68385;DHT22;55336;43.062;25.626;2023-06-14T07:31:01;26.00;92.70
68385;DHT22;55336;43.062;25.626;2023-06-14T07:33:26;25.80;91.50
68385;DHT22;55336;43.062;25.626;2023-06-14T07:35:55;25.80;90.10
68385;DHT22;55336;43.062;25.626;2023-06-14T07:38:21;25.70;90.00
68385;DHT22;55336;43.062;25.626;2023-06-14T07:40:47;24.30;99.80
68385;DHT22;55336;43.062;25.626;2023-06-14T07:43:13;24.80;99.90
68385;DHT22;55336;43.062;25.626;2023-06-14T07:45:38;24.90;99.50
68385;DHT22;55336;43.062;25.626;2023-06-14T07:48:04;25.40;94.00
68385;DHT22;55336;43.062;25.626;2023-06-14T07:50:30;25.90;91.80
68385;DHT22;55336;43.062;25.626;2023-06-14T07:52:56;25.40;93.20
68385;DHT22;55336;43.062;25.626;2023-06-14T07:55:21;26.00;91.60
68385;DHT22;55336;43.062;25.626;2023-06-14T07:57:47;26.20;90.40
68385;DHT22;55336;43.062;25.626;2023-06-14T08:00:13;26.00;93.30
68385;DHT22;55336;43.062;25.626;2023-06-14T08:02:44;26.40;88.70
68385;DHT22;55336;43.062;25.626;2023-06-14T08:05:10;26.40;86.60
68385;DHT22;55336;43.062;25.626;2023-06-14T08:07:36;25.40;90.20
68385;DHT22;55336;43.062;25.626;2023-06-14T08:10:02;26.60;89.60
68385;DHT22;55336;43.062;25.626;2023-06-14T08:12:28;25.70;94.50
68385;DHT22;55336;43.062;25.626;2023-06-14T08:14:53;26.60;85.80
68385;DHT22;55336;43.062;25.626;2023-06-14T08:17:19;27.00;85.40
68385;DHT22;55336;43.062;25.626;2023-06-14T08:19:45;25.50;87.60
68385;DHT22;55336;43.062;25.626;2023-06-14T08:22:12;25.70;89.70
68385;DHT22;55336;43.062;25.626;2023-06-14T08:24:38;26.40;85.70
68385;DHT22;55336;43.062;25.626;2023-06-14T08:27:05;26.90;80.60
68385;DHT22;55336;43.062;25.626;2023-06-14T08:29:31;27.40;80.50
68385;DHT22;55336;43.062;25.626;2023-06-14T08:31:56;27.00;80.70
68385;DHT22;55336;43.062;25.626;2023-06-14T08:34:22;28.40;76.60
68385;DHT22;55336;43.062;25.626;2023-06-14T08:36:52;28.70;71.50
68385;DHT22;55336;43.062;25.626;2023-06-14T08:39:17;27.70;76.70
68385;DHT22;55336;43.062;25.626;2023-06-14T08:41:46;28.40;72.80
68385;DHT22;55336;43.062;25.626;2023-06-14T08:44:16;29.20;69.80
68385;DHT22;55336;43.062;25.626;2023-06-14T08:46:42;29.60;65.70
68385;DHT22;55336;43.062;25.626;2023-06-14T08:49:07;29.80;65.60
68385;DHT22;55336;43.062;25.626;2023-06-14T08:51:33;29.80;61.90
68385;DHT22;55336;43.062;25.626;2023-06-14T08:54:02;29.70;61.50
68385;DHT22;55336;43.062;25.626;2023-06-14T08:56:30;29.80;62.90
68385;DHT22;55336;43.062;25.626;2023-06-14T08:58:56;30.10;62.10
68385;DHT22;55336;43.062;25.626;2023-06-14T09:01:22;30.40;62.50
68385;DHT22;55336;43.062;25.626;2023-06-14T09:03:49;30.40;58.50
68385;DHT22;55336;43.062;25.626;2023-06-14T09:06:15;30.40;58.20
68385;DHT22;55336;43.062;25.626;2023-06-14T09:08:45;30.10;58.70
68385;DHT22;55336;43.062;25.626;2023-06-14T09:11:15;30.50;58.60
68385;DHT22;55336;43.062;25.626;2023-06-14T09:13:44;30.80;56.90
68385;DHT22;55336;43.062;25.626;2023-06-14T09:16:09;30.20;59.50
68385;DHT22;55336;43.062;25.626;2023-06-14T09:21:07;29.40;59.80
68385;DHT22;55336;43.062;25.626;2023-06-14T09:23:36;28.60;63.60
68385;DHT22;55336;43.062;25.626;2023-06-14T09:26:06;29.80;58.10
68385;DHT22;55336;43.062;25.626;2023-06-14T09:28:31;30.30;58.40
68385;DHT22;55336;43.062;25.626;2023-06-14T09:31:00;30.70;56.50
68385;DHT22;55336;43.062;25.626;2023-06-14T09:33:26;29.10;58.70
68385;DHT22;55336;43.062;25.626;2023-06-14T09:35:54;29.40;59.50
68385;DHT22;55336;43.062;25.626;2023-06-14T09:38:20;30.10;56.80
68385;DHT22;55336;43.062;25.626;2023-06-14T09:40:46;29.30;58.90
68385;DHT22;55336;43.062;25.626;2023-06-14T09:43:11;30.10;56.40
68385;DHT22;55336;43.062;25.626;2023-06-14T09:45:40;30.70;55.00
68385;DHT22;55336;43.062;25.626;2023-06-14T09:48:07;31.20;55.70
68385;DHT22;55336;43.062;25.626;2023-06-14T09:50:34;31.10;56.10
68385;DHT22;55336;43.062;25.626;2023-06-14T09:53:05;30.40;54.10
68385;DHT22;55336;43.062;25.626;2023-06-14T09:55:31;29.70;55.00
68385;DHT22;55336;43.062;25.626;2023-06-14T09:58:00;29.90;55.20
68385;DHT22;55336;43.062;25.626;2023-06-14T10:00:29;29.90;53.60
68385;DHT22;55336;43.062;25.626;2023-06-14T10:02:58;30.30;52.80
68385;DHT22;55336;43.062;25.626;2023-06-14T10:05:26;30.20;53.00
68385;DHT22;55336;43.062;25.626;2023-06-14T10:07:59;30.30;52.40
68385;DHT22;55336;43.062;25.626;2023-06-14T10:10:25;30.70;52.50
68385;DHT22;55336;43.062;25.626;2023-06-14T10:12:51;31.00;51.30
68385;DHT22;55336;43.062;25.626;2023-06-14T10:15:20;31.30;52.20
68385;DHT22;55336;43.062;25.626;2023-06-14T10:17:53;31.00;50.90
68385;DHT22;55336;43.062;25.626;2023-06-14T10:20:25;30.20;52.80
68385;DHT22;55336;43.062;25.626;2023-06-14T10:22:55;29.10;53.60
68385;DHT22;55336;43.062;25.626;2023-06-14T10:25:30;29.60;57.40
68385;DHT22;55336;43.062;25.626;2023-06-14T10:28:14;30.20;56.00
68385;DHT22;55336;43.062;25.626;2023-06-14T10:30:41;30.30;53.50
68385;DHT22;55336;43.062;25.626;2023-06-14T10:33:26;29.90;55.30
68385;DHT22;55336;43.062;25.626;2023-06-14T10:36:06;29.30;54.90
68385;DHT22;55336;43.062;25.626;2023-06-14T10:38:32;29.60;57.10
68385;DHT22;55336;43.062;25.626;2023-06-14T10:40:58;30.40;53.60
68385;DHT22;55336;43.062;25.626;2023-06-14T10:43:24;30.80;52.70
68385;DHT22;55336;43.062;25.626;2023-06-14T10:48:34;31.60;48.50
68385;DHT22;55336;43.062;25.626;2023-06-14T10:51:05;31.70;49.60
68385;DHT22;55336;43.062;25.626;2023-06-14T10:53:40;32.00;47.80
68385;DHT22;55336;43.062;25.626;2023-06-14T10:56:06;31.70;47.80
68385;DHT22;55336;43.062;25.626;2023-06-14T10:58:32;31.60;48.40
68385;DHT22;55336;43.062;25.626;2023-06-14T11:00:58;31.40;53.40
68385;DHT22;55336;43.062;25.626;2023-06-14T11:03:36;30.00;53.70
68385;DHT22;55336;43.062;25.626;2023-06-14T11:06:13;29.60;51.20
68385;DHT22;55336;43.062;25.626;2023-06-14T11:11:14;30.80;50.20
68385;DHT22;55336;43.062;25.626;2023-06-14T11:13:41;31.20;50.10
68385;DHT22;55336;43.062;25.626;2023-06-14T11:16:11;31.50;47.60
68385;DHT22;55336;43.062;25.626;2023-06-14T11:18:37;31.90;48.50
68385;DHT22;55336;43.062;25.626;2023-06-14T11:21:03;31.00;47.70
68385;DHT22;55336;43.062;25.626;2023-06-14T11:23:29;31.60;46.80
68385;DHT22;55336;43.062;25.626;2023-06-14T11:25:54;32.00;46.90
68385;DHT22;55336;43.062;25.626;2023-06-14T11:28:20;32.00;46.60
68385;DHT22;55336;43.062;25.626;2023-06-14T11:30:47;31.60;46.60
68385;DHT22;55336;43.062;25.626;2023-06-14T11:33:16;31.50;44.70
68385;DHT22;55336;43.062;25.626;2023-06-14T11:35:42;31.50;45.10
68385;DHT22;55336;43.062;25.626;2023-06-14T11:38:09;31.40;46.30
68385;DHT22;55336;43.062;25.626;2023-06-14T11:40:37;31.50;45.70
68385;DHT22;55336;43.062;25.626;2023-06-14T11:43:03;32.20;45.10
68385;DHT22;55336;43.062;25.626;2023-06-14T11:45:30;32.30;44.30
68385;DHT22;55336;43.062;25.626;2023-06-14T11:47:56;32.40;46.30
68385;DHT22;55336;43.062;25.626;2023-06-14T11:50:22;32.60;43.60
68385;DHT22;55336;43.062;25.626;2023-06-14T11:52:57;32.90;44.20
68385;DHT22;55336;43.062;25.626;2023-06-14T11:55:25;32.20;45.70
68385;DHT22;55336;43.062;25.626;2023-06-14T11:57:51;32.30;47.30
68385;DHT22;55336;43.062;25.626;2023-06-14T12:00:17;32.40;46.20
68385;DHT22;55336;43.062;25.626;2023-06-14T12:02:51;31.80;46.70
68385;DHT22;55336;43.062;25.626;2023-06-14T12:05:20;31.40;48.10
68385;DHT22;55336;43.062;25.626;2023-06-14T12:07:46;31.90;46.90
68385;DHT22;55336;43.062;25.626;2023-06-14T12:10:13;32.30;44.00
68385;DHT22;55336;43.062;25.626;2023-06-14T12:12:40;32.60;44.80
68385;DHT22;55336;43.062;25.626;2023-06-14T12:15:06;32.40;43.80
68385;DHT22;55336;43.062;25.626;2023-06-14T12:17:36;32.30;43.00
68385;DHT22;55336;43.062;25.626;2023-06-14T12:20:10;31.80;43.50
68385;DHT22;55336;43.062;25.626;2023-06-14T12:22:37;31.50;46.40
68385;DHT22;55336;43.062;25.626;2023-06-14T12:25:04;30.80;47.80
68385;DHT22;55336;43.062;25.626;2023-06-14T12:27:29;30.90;45.80
68385;DHT22;55336;43.062;25.626;2023-06-14T12:29:59;30.10;50.30
68385;DHT22;55336;43.062;25.626;2023-06-14T12:32:24;30.20;52.00
68385;DHT22;55336;43.062;25.626;2023-06-14T12:34:50;30.20;53.70
68385;DHT22;55336;43.062;25.626;2023-06-14T12:37:16;29.80;50.40
68385;DHT22;55336;43.062;25.626;2023-06-14T12:39:42;30.20;49.50
68385;DHT22;55336;43.062;25.626;2023-06-14T12:42:08;30.90;47.10
68385;DHT22;55336;43.062;25.626;2023-06-14T12:44:33;31.60;45.50
68385;DHT22;55336;43.062;25.626;2023-06-14T12:47:01;31.60;46.40
68385;DHT22;55336;43.062;25.626;2023-06-14T12:49:26;32.10;44.10
68385;DHT22;55336;43.062;25.626;2023-06-14T12:51:54;32.10;43.70
68385;DHT22;55336;43.062;25.626;2023-06-14T12:54:28;32.20;42.10
68385;DHT22;55336;43.062;25.626;2023-06-14T12:56:54;32.40;46.80
68385;DHT22;55336;43.062;25.626;2023-06-14T12:59:20;32.40;42.80
68385;DHT22;55336;43.062;25.626;2023-06-14T13:01:46;32.90;41.70
68385;DHT22;55336;43.062;25.626;2023-06-14T13:04:15;33.10;40.00
68385;DHT22;55336;43.062;25.626;2023-06-14T13:06:41;32.80;39.10
68385;DHT22;55336;43.062;25.626;2023-06-14T13:09:07;32.80;40.90
68385;DHT22;55336;43.062;25.626;2023-06-14T13:11:33;33.10;42.30
68385;DHT22;55336;43.062;25.626;2023-06-14T13:13:59;33.30;40.70
68385;DHT22;55336;43.062;25.626;2023-06-14T13:16:25;32.80;38.80
68385;DHT22;55336;43.062;25.626;2023-06-14T13:18:53;32.60;41.60
68385;DHT22;55336;43.062;25.626;2023-06-14T13:21:19;32.90;40.80
68385;DHT22;55336;43.062;25.626;2023-06-14T13:23:44;32.90;41.80
68385;DHT22;55336;43.062;25.626;2023-06-14T13:26:10;32.80;40.90
68385;DHT22;55336;43.062;25.626;2023-06-14T13:28:37;32.40;41.50
68385;DHT22;55336;43.062;25.626;2023-06-14T13:31:03;31.80;42.80
68385;DHT22;55336;43.062;25.626;2023-06-14T13:33:29;31.50;43.90
68385;DHT22;55336;43.062;25.626;2023-06-14T13:35:55;31.60;43.70
68385;DHT22;55336;43.062;25.626;2023-06-14T13:38:23;31.30;44.20
68385;DHT22;55336;43.062;25.626;2023-06-14T13:40:49;31.20;44.80
68385;DHT22;55336;43.062;25.626;2023-06-14T13:43:16;31.00;45.40
68385;DHT22;55336;43.062;25.626;2023-06-14T13:45:42;30.90;44.90
68385;DHT22;55336;43.062;25.626;2023-06-14T13:48:07;30.50;45.40
68385;DHT22;55336;43.062;25.626;2023-06-14T13:50:33;30.80;46.70
68385;DHT22;55336;43.062;25.626;2023-06-14T13:52:59;30.60;45.30
68385;DHT22;55336;43.062;25.626;2023-06-14T13:55:25;30.40;46.30
68385;DHT22;55336;43.062;25.626;2023-06-14T13:57:51;30.40;46.20
68385;DHT22;55336;43.062;25.626;2023-06-14T14:00:17;31.20;44.50
68385;DHT22;55336;43.062;25.626;2023-06-14T14:02:42;32.30;42.10
68385;DHT22;55336;43.062;25.626;2023-06-14T14:05:08;32.40;41.30
68385;DHT22;55336;43.062;25.626;2023-06-14T14:07:34;32.40;42.00
68385;DHT22;55336;43.062;25.626;2023-06-14T14:10:02;32.20;43.50
68385;DHT22;55336;43.062;25.626;2023-06-14T14:12:27;32.40;43.00
68385;DHT22;55336;43.062;25.626;2023-06-14T14:14:54;32.20;42.80
68385;DHT22;55336;43.062;25.626;2023-06-14T14:17:20;32.10;44.50
68385;DHT22;55336;43.062;25.626;2023-06-14T14:19:46;32.20;43.90
68385;DHT22;55336;43.062;25.626;2023-06-14T14:22:12;32.20;44.50
68385;DHT22;55336;43.062;25.626;2023-06-14T14:24:37;32.00;45.50
68385;DHT22;55336;43.062;25.626;2023-06-14T14:27:05;31.90;44.70
68385;DHT22;55336;43.062;25.626;2023-06-14T14:29:32;31.60;45.90
68385;DHT22;55336;43.062;25.626;2023-06-14T14:31:58;31.60;45.50
68385;DHT22;55336;43.062;25.626;2023-06-14T14:34:24;31.50;45.50
68385;DHT22;55336;43.062;25.626;2023-06-14T14:36:50;31.30;46.30
68385;DHT22;55336;43.062;25.626;2023-06-14T14:39:16;31.30;47.60
68385;DHT22;55336;43.062;25.626;2023-06-14T14:41:42;31.30;48.80
68385;DHT22;55336;43.062;25.626;2023-06-14T14:44:08;31.30;49.80
68385;DHT22;55336;43.062;25.626;2023-06-14T14:46:33;31.00;49.20
68385;DHT22;55336;43.062;25.626;2023-06-14T14:49:00;31.00;51.20
68385;DHT22;55336;43.062;25.626;2023-06-14T14:51:26;31.00;52.70
68385;DHT22;55336;43.062;25.626;2023-06-14T14:53:52;31.00;50.60
68385;DHT22;55336;43.062;25.626;2023-06-14T14:56:18;30.90;50.30
68385;DHT22;55336;43.062;25.626;2023-06-14T14:58:44;30.90;49.80
68385;DHT22;55336;43.062;25.626;2023-06-14T15:01:19;30.90;50.70
68385;DHT22;55336;43.062;25.626;2023-06-14T15:03:45;30.90;49.90
68385;DHT22;55336;43.062;25.626;2023-06-14T15:06:11;30.80;50.30
68385;DHT22;55336;43.062;25.626;2023-06-14T15:08:41;30.70;49.90
68385;DHT22;55336;43.062;25.626;2023-06-14T15:11:07;30.60;51.50
68385;DHT22;55336;43.062;25.626;2023-06-14T15:13:33;30.50;50.60
68385;DHT22;55336;43.062;25.626;2023-06-14T15:16:01;30.30;50.50
68385;DHT22;55336;43.062;25.626;2023-06-14T15:18:27;30.30;52.80
68385;DHT22;55336;43.062;25.626;2023-06-14T15:20:53;30.10;52.50
68385;DHT22;55336;43.062;25.626;2023-06-14T15:23:19;29.90;53.10